Weather forecast for Mishelevka (Мишелевка)

Russia, 412 m
N52.890, E103.197


Sounding

Red line — air temperature ˚C.
Blue line — thermal bubble temperature ˚C.
Green line — dew point temperature ˚C.
Wind speed is in meters per second.

Table forecast

GFS 0.25˚ model

temp. wind gust humid. clouds prec. press. hpbl
Sun22 00:00 3 132.0 se 4 9 88 62 0.0 1022 188
03:00 2 134.0 se 4 10 82 45 0.0 1021 205
06:00 1 138.0 se 4 9 80 31 0.0 1020 184
09:00 1 134.0 se 3 6 82 34 0.0 1020 126
12:00 5 146.0 se 4 6 64 81 0.0 1018 238
15:00 10 137.0 se 4 6 52 81 0.0 1016 313
18:00 9 124.0 se 4 9 58 70 0.0 1015 245
21:00 6 123.0 ese 5 11 65 80 0.0 1015 221
 
Mon23 00:00 4 127.0 se 4 9 73 100 0.0 1015 192
03:00 3 135.0 se 2 3 83 100 0.0 1015 36
06:00 2 164.0 sse 1 1 87 18 0.0 1015 22
09:00 1 254.0 wsw 1 1 86 8 0.0 1017 22
12:00 7 322.0 nw 2 4 62 7 0.0 1017 279
15:00 10 314.0 nw 3 5 55 34 0.0 1016 528
18:00 8 350.0 n 5 9 72 100 0.0 1020 699
21:00 4 355.0 n 6 10 73 99 0.1 1025 731
 
Tue24 00:00 3 352.0 n 3 5 77 100 0.3 1029 765
03:00 2 336.0 nnw 2 4 78 100 0.4 1029 388
06:00 1 46.0 ne 1 1 79 87 0.0 1029 21
09:00 1 88.0 e 2 3 72 94 0.0 1029 100
12:00 3 119.0 ese 3 5 55 78 0.0 1027 540
15:00 6 130.0 se 4 5 53 39 0.0 1024 752
18:00 5 116.0 ese 2 5 61 0 0.0 1023 179
21:00 2 106.0 ese 2 3 68 7 0.0 1024 23
 
Wed25 00:00 1 103.0 ese 2 2 79 61 0.0 1023 22
03:00 0 113.0 ese 2 3 89 65 0.0 1021 76
06:00 -0 116.0 ese 2 2 90 33 0.0 1019 26
09:00 -0 124.0 se 1 2 90 29 0.0 1019 21
12:00 4 158.0 sse 2 2 71 72 0.0 1018 251
15:00 7 194.0 ssw 2 2 57 64 0.0 1016 310
18:00 6 157.0 sse 2 2 65 8 0.0 1015 25
21:00 3 132.0 se 3 3 72 9 0.0 1016 32
 
Thu26 00:00 3 127.0 se 3 6 82 73 0.0 1014 100
03:00 3 156.0 sse 2 3 78 86 0.0 1013 91
06:00 1 312.0 nw 5 11 85 98 0.0 1012 471
09:00 1 316.0 nw 5 9 86 99 0.1 1013 552
12:00 2 334.0 nnw 6 10 82 100 0.5 1013 805
15:00 1 334.0 nnw 7 11 83 100 2.1 1014 849
18:00 0 323.0 nw 4 6 79 100 0.4 1017 673
21:00 -1 297.0 wnw 3 5 87 100 0.5 1021 206
 

0.011 s